Larkspur — C6BR6 — position and weather

sailwx.info

Track history (hours):
 
Tides and Currents Weather Stations Pressure Air Temp Water Temp Dewpoint Dewpoint Depression Visibility Wind Speed Wind Dir Waves Ship Positions

Larkspur

Operator: Transeuropa Lines

Last reported at 2016-Dec-01 18:20 UTC. Time now 2016-Dec-09 19:51 UTC.
Position S 24°21' W 045°59'.
Warning: this ship's position is 8 days out of date.

Length 225 m; draft 7.5 m.

Type: Tanker. MMSI: 311000344.

Date/timePositionNaut miles runAvg speedWind from/ knotsBaromVisibWave heightAir tempDewpointWater temp
2016-Dec-01 18:20S 24°21' W 045°59'1214.9
2016-Dec-01 17:31S 24°22' W 046°13'1314.0
2016-Dec-01 16:33S 24°11' W 046°22'1212.1
2016-Dec-01 15:34S 23°60' W 046°19'5 0.1
2016-Nov-30 01:13S 23°55' W 046°22'5 6.7
2016-Nov-30 00:31S 23°58' W 046°18'6 5.9
2016-Nov-29 23:33S 24°03' W 046°21'8 8.4
2016-Nov-29 22:34S 24°11' W 046°20'1 0.9
2016-Nov-29 21:33S 24°12' W 046°19'0 0.0
2016-Nov-29 20:33S 24°12' W 046°19'0 0.0
2016-Nov-29 19:33S 24°12' W 046°19'0 0.0
2016-Nov-29 18:33S 24°12' W 046°19'0 0.0
2016-Nov-29 17:27S 24°12' W 046°19'0 0.0
2016-Nov-29 16:33S 24°12' W 046°19'0 0.0
2016-Nov-29 15:30S 24°12' W 046°19'0 0.0
2016-Nov-29 14:33S 24°12' W 046°19'0 0.0
2016-Nov-29 13:33S 24°12' W 046°19'0 0.0
2016-Nov-29 12:33S 24°12' W 046°19'0 0.0
2016-Nov-29 11:33S 24°12' W 046°19'0 0.0
2016-Nov-29 10:33S 24°12' W 046°19'0 0.0
2016-Nov-29 09:30S 24°12' W 046°19'0 0.0
2016-Nov-29 08:33S 24°12' W 046°19'0 0.0
2016-Nov-29 07:30S 24°12' W 046°19'0 0.0
2016-Nov-29 06:33S 24°12' W 046°19'0 0.0
2016-Nov-29 05:33S 24°12' W 046°19'0 0.0
2016-Nov-29 04:33S 24°12' W 046°19'0 0.1
2016-Nov-29 03:33S 24°12' W 046°19'0 0.1
2016-Nov-29 02:33S 24°12' W 046°19'0 0.0
2016-Nov-29 01:33S 24°12' W 046°19'0 0.0
2016-Nov-29 00:33S 24°12' W 046°19'0 0.0
2016-Nov-28 23:33S 24°12' W 046°19'0 0.0
2016-Nov-28 22:33S 24°12' W 046°19'0 0.0
2016-Nov-28 21:24S 24°12' W 046°19'0 0.0
2016-Nov-28 20:33S 24°12' W 046°19'0 0.0
2016-Nov-28 19:33S 24°12' W 046°19'0 0.0
2016-Nov-28 18:33S 24°12' W 046°19'0 0.0
2016-Nov-28 17:30S 24°12' W 046°19'0 0.0
2016-Nov-28 16:27S 24°12' W 046°19'0 0.0
2016-Nov-28 15:30S 24°12' W 046°19'0 0.0
2016-Nov-28 14:33S 24°12' W 046°19'0 0.0
2016-Nov-28 13:27S 24°12' W 046°19'0 0.0
2016-Nov-28 12:33S 24°12' W 046°19'0 0.0
2016-Nov-28 11:33S 24°12' W 046°19'0 0.0
2016-Nov-28 10:30S 24°12' W 046°19'0 0.0
2016-Nov-28 09:33S 24°12' W 046°19'0 0.0
2016-Nov-28 08:27S 24°12' W 046°19'0 0.0
2016-Nov-28 07:33S 24°12' W 046°19'0 0.0
2016-Nov-28 06:30S 24°12' W 046°19'0 0.0
2016-Nov-28 05:33S 24°12' W 046°19'0 0.0
2016-Nov-28 04:33S 24°12' W 046°19'0 0.0
2016-Nov-28 03:33S 24°12' W 046°19'0 0.0
2016-Nov-28 02:27S 24°12' W 046°19'0 0.0
2016-Nov-28 01:33S 24°12' W 046°19'0 0.0
2016-Nov-28 00:30S 24°12' W 046°19'0 0.0
2016-Nov-27 23:33S 24°12' W 046°19'0 0.0
2016-Nov-27 22:33S 24°12' W 046°19'0 0.0
2016-Nov-27 21:33S 24°12' W 046°19'1412.0
2016-Nov-27 20:23S 24°13' W 046°04'1213.9
2016-Nov-27 19:33S 24°15' W 045°51'3316.5
2016-Nov-27 17:33S 24°11' W 045°15'  
Track history (hours):
 
Tides and Currents Weather Stations Pressure Air Temp Water Temp Dewpoint Dewpoint Depression Visibility Wind Speed Wind Dir Waves Ship Positions

Larkspur

Operator: Transeuropa Lines

Last reported at 2016-Dec-01 18:20 UTC. Time now 2016-Dec-09 19:51 UTC.
Position S 24°21' W 045°59'.
Warning: this ship's position is 8 days out of date.

Length 225 m; draft 7.5 m.

Type: Tanker. MMSI: 311000344.

Date/timePositionNaut miles runAvg speedWind from/ knotsBaromVisibWave heightAir tempDewpointWater temp
2016-Dec-01 18:20S 24°21' W 045°59'1214.9
2016-Dec-01 17:31S 24°22' W 046°13'1314.0
2016-Dec-01 16:33S 24°11' W 046°22'1212.1
2016-Dec-01 15:34S 23°60' W 046°19'5 0.1
2016-Nov-30 01:13S 23°55' W 046°22'5 6.7
2016-Nov-30 00:31S 23°58' W 046°18'6 5.9
2016-Nov-29 23:33S 24°03' W 046°21'8 8.4
2016-Nov-29 22:34S 24°11' W 046°20'1 0.9
2016-Nov-29 21:33S 24°12' W 046°19'0 0.0
2016-Nov-29 20:33S 24°12' W 046°19'0 0.0
2016-Nov-29 19:33S 24°12' W 046°19'0 0.0
2016-Nov-29 18:33S 24°12' W 046°19'0 0.0
2016-Nov-29 17:27S 24°12' W 046°19'0 0.0
2016-Nov-29 16:33S 24°12' W 046°19'0 0.0
2016-Nov-29 15:30S 24°12' W 046°19'0 0.0
2016-Nov-29 14:33S 24°12' W 046°19'0 0.0
2016-Nov-29 13:33S 24°12' W 046°19'0 0.0
2016-Nov-29 12:33S 24°12' W 046°19'0 0.0
2016-Nov-29 11:33S 24°12' W 046°19'0 0.0
2016-Nov-29 10:33S 24°12' W 046°19'0 0.0
2016-Nov-29 09:30S 24°12' W 046°19'0 0.0
2016-Nov-29 08:33S 24°12' W 046°19'0 0.0
2016-Nov-29 07:30S 24°12' W 046°19'0 0.0
2016-Nov-29 06:33S 24°12' W 046°19'0 0.0
2016-Nov-29 05:33S 24°12' W 046°19'0 0.0
2016-Nov-29 04:33S 24°12' W 046°19'0 0.1
2016-Nov-29 03:33S 24°12' W 046°19'0 0.1
2016-Nov-29 02:33S 24°12' W 046°19'0 0.0
2016-Nov-29 01:33S 24°12' W 046°19'0 0.0
2016-Nov-29 00:33S 24°12' W 046°19'0 0.0
2016-Nov-28 23:33S 24°12' W 046°19'0 0.0
2016-Nov-28 22:33S 24°12' W 046°19'0 0.0
2016-Nov-28 21:24S 24°12' W 046°19'0 0.0
2016-Nov-28 20:33S 24°12' W 046°19'0 0.0
2016-Nov-28 19:33S 24°12' W 046°19'0 0.0
2016-Nov-28 18:33S 24°12' W 046°19'0 0.0
2016-Nov-28 17:30S 24°12' W 046°19'0 0.0
2016-Nov-28 16:27S 24°12' W 046°19'0 0.0
2016-Nov-28 15:30S 24°12' W 046°19'0 0.0
2016-Nov-28 14:33S 24°12' W 046°19'0 0.0
2016-Nov-28 13:27S 24°12' W 046°19'0 0.0
2016-Nov-28 12:33S 24°12' W 046°19'0 0.0
2016-Nov-28 11:33S 24°12' W 046°19'0 0.0
2016-Nov-28 10:30S 24°12' W 046°19'0 0.0
2016-Nov-28 09:33S 24°12' W 046°19'0 0.0
2016-Nov-28 08:27S 24°12' W 046°19'0 0.0
2016-Nov-28 07:33S 24°12' W 046°19'0 0.0
2016-Nov-28 06:30S 24°12' W 046°19'0 0.0
2016-Nov-28 05:33S 24°12' W 046°19'0 0.0
2016-Nov-28 04:33S 24°12' W 046°19'0 0.0
2016-Nov-28 03:33S 24°12' W 046°19'0 0.0
2016-Nov-28 02:27S 24°12' W 046°19'0 0.0
2016-Nov-28 01:33S 24°12' W 046°19'0 0.0
2016-Nov-28 00:30S 24°12' W 046°19'0 0.0
2016-Nov-27 23:33S 24°12' W 046°19'0 0.0
2016-Nov-27 22:33S 24°12' W 046°19'0 0.0
2016-Nov-27 21:33S 24°12' W 046°19'1412.0
2016-Nov-27 20:23S 24°13' W 046°04'1213.9
2016-Nov-27 19:33S 24°15' W 045°51'3316.5
2016-Nov-27 17:33S 24°11' W 045°15'  

Dump ship's entire track history